sensor_id;sensor_type;location;lat;lon;timestamp;temperature;humidity
6357;DHT22;3211;53.452;-2.264;2024-02-28T00:00:15;4.90;99.90
6357;DHT22;3211;53.452;-2.264;2024-02-28T00:03:03;4.80;99.90
6357;DHT22;3211;53.452;-2.264;2024-02-28T00:05:50;4.90;99.90
6357;DHT22;3211;53.452;-2.264;2024-02-28T00:08:37;4.70;99.90
6357;DHT22;3211;53.452;-2.264;2024-02-28T00:11:26;4.60;99.90
6357;DHT22;3211;53.452;-2.264;2024-02-28T00:14:14;4.60;99.90
6357;DHT22;3211;53.452;-2.264;2024-02-28T00:17:01;4.60;99.90
6357;DHT22;3211;53.452;-2.264;2024-02-28T00:19:48;4.60;99.90
6357;DHT22;3211;53.452;-2.264;2024-02-28T00:22:36;4.80;99.90
6357;DHT22;3211;53.452;-2.264;2024-02-28T00:25:23;5.00;99.90
6357;DHT22;3211;53.452;-2.264;2024-02-28T00:28:12;4.90;99.90
6357;DHT22;3211;53.452;-2.264;2024-02-28T00:30:59;4.80;99.90
6357;DHT22;3211;53.452;-2.264;2024-02-28T00:33:46;4.80;99.90
6357;DHT22;3211;53.452;-2.264;2024-02-28T00:36:34;4.90;99.90
6357;DHT22;3211;53.452;-2.264;2024-02-28T00:39:21;4.90;99.90
6357;DHT22;3211;53.452;-2.264;2024-02-28T00:42:08;4.80;99.90
6357;DHT22;3211;53.452;-2.264;2024-02-28T00:44:57;4.80;99.90
6357;DHT22;3211;53.452;-2.264;2024-02-28T00:47:44;4.70;99.90
6357;DHT22;3211;53.452;-2.264;2024-02-28T00:50:31;4.60;99.90
6357;DHT22;3211;53.452;-2.264;2024-02-28T00:53:19;4.60;99.90
6357;DHT22;3211;53.452;-2.264;2024-02-28T00:56:07;4.80;99.90
6357;DHT22;3211;53.452;-2.264;2024-02-28T00:58:54;4.80;99.90
6357;DHT22;3211;53.452;-2.264;2024-02-28T01:01:42;4.80;99.90
6357;DHT22;3211;53.452;-2.264;2024-02-28T01:04:30;4.60;99.90
6357;DHT22;3211;53.452;-2.264;2024-02-28T01:07:17;4.70;99.90
6357;DHT22;3211;53.452;-2.264;2024-02-28T01:10:05;4.80;99.90
6357;DHT22;3211;53.452;-2.264;2024-02-28T01:12:53;4.70;99.90
6357;DHT22;3211;53.452;-2.264;2024-02-28T01:15:40;4.70;99.90
6357;DHT22;3211;53.452;-2.264;2024-02-28T01:18:30;4.70;99.90
6357;DHT22;3211;53.452;-2.264;2024-02-28T01:21:18;4.70;99.90
6357;DHT22;3211;53.452;-2.264;2024-02-28T01:24:05;4.70;99.90
6357;DHT22;3211;53.452;-2.264;2024-02-28T01:26:52;4.60;99.90
6357;DHT22;3211;53.452;-2.264;2024-02-28T01:29:40;4.50;99.90
6357;DHT22;3211;53.452;-2.264;2024-02-28T01:32:28;4.60;99.90
6357;DHT22;3211;53.452;-2.264;2024-02-28T01:35:17;4.60;99.90
6357;DHT22;3211;53.452;-2.264;2024-02-28T01:38:05;4.50;99.90
6357;DHT22;3211;53.452;-2.264;2024-02-28T01:40:52;4.50;99.90
6357;DHT22;3211;53.452;-2.264;2024-02-28T01:43:39;4.50;99.90
6357;DHT22;3211;53.452;-2.264;2024-02-28T01:46:27;4.50;99.90
6357;DHT22;3211;53.452;-2.264;2024-02-28T01:49:16;4.60;99.90
6357;DHT22;3211;53.452;-2.264;2024-02-28T01:52:05;4.50;99.90
6357;DHT22;3211;53.452;-2.264;2024-02-28T01:54:53;4.60;99.90
6357;DHT22;3211;53.452;-2.264;2024-02-28T01:57:40;4.60;99.90
6357;DHT22;3211;53.452;-2.264;2024-02-28T02:00:28;4.60;99.90
6357;DHT22;3211;53.452;-2.264;2024-02-28T02:03:15;4.50;99.90
6357;DHT22;3211;53.452;-2.264;2024-02-28T02:06:03;4.40;99.90
6357;DHT22;3211;53.452;-2.264;2024-02-28T02:08:52;4.50;99.90
6357;DHT22;3211;53.452;-2.264;2024-02-28T02:11:40;4.60;99.90
6357;DHT22;3211;53.452;-2.264;2024-02-28T02:14:27;4.40;99.90
6357;DHT22;3211;53.452;-2.264;2024-02-28T02:17:14;4.30;99.90
6357;DHT22;3211;53.452;-2.264;2024-02-28T02:20:02;4.30;99.90
6357;DHT22;3211;53.452;-2.264;2024-02-28T02:22:53;4.50;99.90
6357;DHT22;3211;53.452;-2.264;2024-02-28T02:25:44;4.60;99.90
6357;DHT22;3211;53.452;-2.264;2024-02-28T02:28:31;4.50;99.90
6357;DHT22;3211;53.452;-2.264;2024-02-28T02:31:19;4.40;99.90
6357;DHT22;3211;53.452;-2.264;2024-02-28T02:34:06;4.40;99.90
6357;DHT22;3211;53.452;-2.264;2024-02-28T02:36:53;4.40;99.90
6357;DHT22;3211;53.452;-2.264;2024-02-28T02:39:43;4.60;99.90
6357;DHT22;3211;53.452;-2.264;2024-02-28T02:42:30;4.50;99.90
6357;DHT22;3211;53.452;-2.264;2024-02-28T02:45:18;4.50;99.90
6357;DHT22;3211;53.452;-2.264;2024-02-28T02:48:05;4.50;99.90
6357;DHT22;3211;53.452;-2.264;2024-02-28T02:50:53;4.40;99.90
6357;DHT22;3211;53.452;-2.264;2024-02-28T02:53:40;4.40;99.90
6357;DHT22;3211;53.452;-2.264;2024-02-28T02:56:29;4.30;99.90
6357;DHT22;3211;53.452;-2.264;2024-02-28T02:59:16;4.40;99.90
6357;DHT22;3211;53.452;-2.264;2024-02-28T03:02:05;4.40;99.90
6357;DHT22;3211;53.452;-2.264;2024-02-28T03:04:53;4.40;99.90
6357;DHT22;3211;53.452;-2.264;2024-02-28T03:07:40;4.40;99.90
6357;DHT22;3211;53.452;-2.264;2024-02-28T03:10:27;4.40;99.90
6357;DHT22;3211;53.452;-2.264;2024-02-28T03:13:16;4.40;99.90
6357;DHT22;3211;53.452;-2.264;2024-02-28T03:16:04;4.30;99.90
6357;DHT22;3211;53.452;-2.264;2024-02-28T03:18:53;4.30;99.90
6357;DHT22;3211;53.452;-2.264;2024-02-28T03:21:41;4.40;99.90
6357;DHT22;3211;53.452;-2.264;2024-02-28T03:24:29;4.40;99.90
6357;DHT22;3211;53.452;-2.264;2024-02-28T03:27:16;4.50;99.90
6357;DHT22;3211;53.452;-2.264;2024-02-28T03:30:06;4.50;99.90
6357;DHT22;3211;53.452;-2.264;2024-02-28T03:32:53;4.40;99.90
6357;DHT22;3211;53.452;-2.264;2024-02-28T03:35:40;4.50;99.90
6357;DHT22;3211;53.452;-2.264;2024-02-28T03:38:28;4.50;99.90
6357;DHT22;3211;53.452;-2.264;2024-02-28T03:41:15;4.50;99.90
6357;DHT22;3211;53.452;-2.264;2024-02-28T03:44:02;4.50;99.90
6357;DHT22;3211;53.452;-2.264;2024-02-28T03:46:51;4.50;99.90
6357;DHT22;3211;53.452;-2.264;2024-02-28T03:49:38;4.60;99.90
6357;DHT22;3211;53.452;-2.264;2024-02-28T03:52:25;4.60;99.90
6357;DHT22;3211;53.452;-2.264;2024-02-28T03:55:12;4.60;99.90
6357;DHT22;3211;53.452;-2.264;2024-02-28T03:58:00;4.50;99.90
6357;DHT22;3211;53.452;-2.264;2024-02-28T04:00:47;4.60;99.90
6357;DHT22;3211;53.452;-2.264;2024-02-28T04:03:36;4.50;99.90
6357;DHT22;3211;53.452;-2.264;2024-02-28T04:06:23;4.70;99.90
6357;DHT22;3211;53.452;-2.264;2024-02-28T04:09:10;4.60;99.90
6357;DHT22;3211;53.452;-2.264;2024-02-28T04:11:57;4.60;99.90
6357;DHT22;3211;53.452;-2.264;2024-02-28T04:14:45;4.60;99.90
6357;DHT22;3211;53.452;-2.264;2024-02-28T04:17:32;4.70;99.90
6357;DHT22;3211;53.452;-2.264;2024-02-28T04:20:20;4.70;99.90
6357;DHT22;3211;53.452;-2.264;2024-02-28T04:23:08;4.70;99.90
6357;DHT22;3211;53.452;-2.264;2024-02-28T04:25:56;4.60;99.90
6357;DHT22;3211;53.452;-2.264;2024-02-28T04:28:44;4.60;99.90
6357;DHT22;3211;53.452;-2.264;2024-02-28T04:31:31;4.50;99.90
6357;DHT22;3211;53.452;-2.264;2024-02-28T04:34:18;4.60;99.90
6357;DHT22;3211;53.452;-2.264;2024-02-28T04:37:07;4.60;99.90
6357;DHT22;3211;53.452;-2.264;2024-02-28T04:39:54;4.70;99.90
6357;DHT22;3211;53.452;-2.264;2024-02-28T04:42:41;4.60;99.90
6357;DHT22;3211;53.452;-2.264;2024-02-28T04:45:29;4.60;99.90
6357;DHT22;3211;53.452;-2.264;2024-02-28T04:48:16;4.60;99.90
6357;DHT22;3211;53.452;-2.264;2024-02-28T04:51:03;4.70;99.90
6357;DHT22;3211;53.452;-2.264;2024-02-28T04:53:52;4.70;99.90
6357;DHT22;3211;53.452;-2.264;2024-02-28T04:56:40;4.70;99.90
6357;DHT22;3211;53.452;-2.264;2024-02-28T04:59:28;4.70;99.90
6357;DHT22;3211;53.452;-2.264;2024-02-28T05:02:15;4.70;99.90
6357;DHT22;3211;53.452;-2.264;2024-02-28T05:05:02;4.70;99.90
6357;DHT22;3211;53.452;-2.264;2024-02-28T05:07:50;4.70;99.90
6357;DHT22;3211;53.452;-2.264;2024-02-28T05:10:38;4.70;99.90
6357;DHT22;3211;53.452;-2.264;2024-02-28T05:13:26;4.80;99.90
6357;DHT22;3211;53.452;-2.264;2024-02-28T05:16:13;4.80;99.90
6357;DHT22;3211;53.452;-2.264;2024-02-28T05:19:00;4.80;99.90
6357;DHT22;3211;53.452;-2.264;2024-02-28T05:21:48;4.70;99.90
6357;DHT22;3211;53.452;-2.264;2024-02-28T05:24:35;4.70;99.90
6357;DHT22;3211;53.452;-2.264;2024-02-28T05:27:24;4.70;99.90
6357;DHT22;3211;53.452;-2.264;2024-02-28T05:30:12;4.70;99.90
6357;DHT22;3211;53.452;-2.264;2024-02-28T05:32:59;4.80;99.90
6357;DHT22;3211;53.452;-2.264;2024-02-28T05:35:46;4.80;99.90
6357;DHT22;3211;53.452;-2.264;2024-02-28T05:38:34;4.80;99.90
6357;DHT22;3211;53.452;-2.264;2024-02-28T05:41:21;4.90;99.90
6357;DHT22;3211;53.452;-2.264;2024-02-28T05:44:10;4.90;99.90
6357;DHT22;3211;53.452;-2.264;2024-02-28T05:46:57;5.00;99.90
6357;DHT22;3211;53.452;-2.264;2024-02-28T05:49:44;5.10;99.90
6357;DHT22;3211;53.452;-2.264;2024-02-28T05:52:31;5.00;99.90
6357;DHT22;3211;53.452;-2.264;2024-02-28T05:55:19;5.10;99.90
6357;DHT22;3211;53.452;-2.264;2024-02-28T05:58:09;5.10;99.90
6357;DHT22;3211;53.452;-2.264;2024-02-28T06:00:58;5.10;99.90
6357;DHT22;3211;53.452;-2.264;2024-02-28T06:03:47;5.10;99.90
6357;DHT22;3211;53.452;-2.264;2024-02-28T06:06:35;5.20;99.90
6357;DHT22;3211;53.452;-2.264;2024-02-28T06:09:22;5.30;99.90
6357;DHT22;3211;53.452;-2.264;2024-02-28T06:12:09;5.20;99.90
6357;DHT22;3211;53.452;-2.264;2024-02-28T06:14:57;5.10;99.90
6357;DHT22;3211;53.452;-2.264;2024-02-28T06:17:45;5.10;99.90
6357;DHT22;3211;53.452;-2.264;2024-02-28T06:20:32;5.10;99.90
6357;DHT22;3211;53.452;-2.264;2024-02-28T06:23:20;5.10;99.90
6357;DHT22;3211;53.452;-2.264;2024-02-28T06:26:07;5.20;99.90
6357;DHT22;3211;53.452;-2.264;2024-02-28T06:29:00;5.30;99.90
6357;DHT22;3211;53.452;-2.264;2024-02-28T06:31:50;5.20;99.90
6357;DHT22;3211;53.452;-2.264;2024-02-28T06:34:40;5.10;99.90
6357;DHT22;3211;53.452;-2.264;2024-02-28T06:37:27;5.20;99.90
6357;DHT22;3211;53.452;-2.264;2024-02-28T06:40:15;5.10;99.90
6357;DHT22;3211;53.452;-2.264;2024-02-28T06:43:03;5.10;99.90
6357;DHT22;3211;53.452;-2.264;2024-02-28T06:45:51;5.10;99.90
6357;DHT22;3211;53.452;-2.264;2024-02-28T06:48:39;5.10;99.90
6357;DHT22;3211;53.452;-2.264;2024-02-28T06:51:27;5.10;99.90
6357;DHT22;3211;53.452;-2.264;2024-02-28T06:54:15;5.10;99.90
6357;DHT22;3211;53.452;-2.264;2024-02-28T06:57:02;5.10;99.90
6357;DHT22;3211;53.452;-2.264;2024-02-28T06:59:50;5.10;99.90
6357;DHT22;3211;53.452;-2.264;2024-02-28T07:02:37;5.10;99.90
6357;DHT22;3211;53.452;-2.264;2024-02-28T07:05:24;5.20;99.90
6357;DHT22;3211;53.452;-2.264;2024-02-28T07:08:13;5.20;99.90
6357;DHT22;3211;53.452;-2.264;2024-02-28T07:11:00;5.30;99.90
6357;DHT22;3211;53.452;-2.264;2024-02-28T07:13:48;5.40;99.90
6357;DHT22;3211;53.452;-2.264;2024-02-28T07:16:35;5.50;99.90
6357;DHT22;3211;53.452;-2.264;2024-02-28T07:19:23;5.50;99.90
6357;DHT22;3211;53.452;-2.264;2024-02-28T07:22:10;5.50;99.90
6357;DHT22;3211;53.452;-2.264;2024-02-28T07:24:58;5.40;99.90
6357;DHT22;3211;53.452;-2.264;2024-02-28T07:27:46;5.40;99.90
6357;DHT22;3211;53.452;-2.264;2024-02-28T07:30:33;5.50;99.90
6357;DHT22;3211;53.452;-2.264;2024-02-28T07:33:21;5.50;99.90
6357;DHT22;3211;53.452;-2.264;2024-02-28T07:36:08;5.70;99.90
6357;DHT22;3211;53.452;-2.264;2024-02-28T07:38:56;5.60;99.90
6357;DHT22;3211;53.452;-2.264;2024-02-28T07:41:44;5.70;99.90
6357;DHT22;3211;53.452;-2.264;2024-02-28T07:44:32;5.70;99.90
6357;DHT22;3211;53.452;-2.264;2024-02-28T07:47:19;5.80;99.90
6357;DHT22;3211;53.452;-2.264;2024-02-28T07:50:07;5.80;99.90
6357;DHT22;3211;53.452;-2.264;2024-02-28T07:52:55;5.80;99.90
6357;DHT22;3211;53.452;-2.264;2024-02-28T07:55:42;5.80;99.90
6357;DHT22;3211;53.452;-2.264;2024-02-28T07:58:31;5.70;99.90
6357;DHT22;3211;53.452;-2.264;2024-02-28T08:01:18;5.80;99.90
6357;DHT22;3211;53.452;-2.264;2024-02-28T08:04:05;5.80;99.90
6357;DHT22;3211;53.452;-2.264;2024-02-28T08:06:52;5.80;99.90
6357;DHT22;3211;53.452;-2.264;2024-02-28T08:09:40;5.80;99.90
6357;DHT22;3211;53.452;-2.264;2024-02-28T08:12:27;5.80;99.90
6357;DHT22;3211;53.452;-2.264;2024-02-28T08:15:16;5.90;99.90
6357;DHT22;3211;53.452;-2.264;2024-02-28T08:18:03;5.90;99.90
6357;DHT22;3211;53.452;-2.264;2024-02-28T08:20:51;6.00;99.90
6357;DHT22;3211;53.452;-2.264;2024-02-28T08:23:39;6.00;99.90
6357;DHT22;3211;53.452;-2.264;2024-02-28T08:26:27;6.10;99.90
6357;DHT22;3211;53.452;-2.264;2024-02-28T08:29:14;6.10;99.90
6357;DHT22;3211;53.452;-2.264;2024-02-28T08:32:03;6.20;99.90
6357;DHT22;3211;53.452;-2.264;2024-02-28T08:34:50;6.10;99.90
6357;DHT22;3211;53.452;-2.264;2024-02-28T08:37:40;6.20;99.90
6357;DHT22;3211;53.452;-2.264;2024-02-28T08:40:27;6.20;99.90
6357;DHT22;3211;53.452;-2.264;2024-02-28T08:43:14;6.30;99.90
6357;DHT22;3211;53.452;-2.264;2024-02-28T08:46:02;6.30;99.90
6357;DHT22;3211;53.452;-2.264;2024-02-28T08:48:51;6.40;99.90
6357;DHT22;3211;53.452;-2.264;2024-02-28T08:51:38;6.40;99.90
6357;DHT22;3211;53.452;-2.264;2024-02-28T08:54:26;6.40;99.90
6357;DHT22;3211;53.452;-2.264;2024-02-28T08:57:13;6.40;99.90
6357;DHT22;3211;53.452;-2.264;2024-02-28T09:00:00;6.40;99.90
6357;DHT22;3211;53.452;-2.264;2024-02-28T09:02:48;6.50;99.90
6357;DHT22;3211;53.452;-2.264;2024-02-28T09:05:36;6.60;99.90
6357;DHT22;3211;53.452;-2.264;2024-02-28T09:08:24;6.60;99.90
6357;DHT22;3211;53.452;-2.264;2024-02-28T09:11:11;6.60;99.90
6357;DHT22;3211;53.452;-2.264;2024-02-28T09:13:59;6.60;99.90
6357;DHT22;3211;53.452;-2.264;2024-02-28T09:16:46;6.60;99.90
6357;DHT22;3211;53.452;-2.264;2024-02-28T09:19:34;6.70;99.90
6357;DHT22;3211;53.452;-2.264;2024-02-28T09:22:22;6.70;99.90
6357;DHT22;3211;53.452;-2.264;2024-02-28T09:25:11;6.70;99.90
6357;DHT22;3211;53.452;-2.264;2024-02-28T09:27:58;6.80;99.90
6357;DHT22;3211;53.452;-2.264;2024-02-28T09:30:46;6.70;99.90
6357;DHT22;3211;53.452;-2.264;2024-02-28T09:33:37;6.80;99.90
6357;DHT22;3211;53.452;-2.264;2024-02-28T09:36:24;6.80;99.90
6357;DHT22;3211;53.452;-2.264;2024-02-28T09:39:13;6.90;99.90
6357;DHT22;3211;53.452;-2.264;2024-02-28T09:42:01;6.90;99.90
6357;DHT22;3211;53.452;-2.264;2024-02-28T09:44:48;7.10;99.90
6357;DHT22;3211;53.452;-2.264;2024-02-28T09:47:36;7.10;99.90
6357;DHT22;3211;53.452;-2.264;2024-02-28T09:50:23;7.20;99.90
6357;DHT22;3211;53.452;-2.264;2024-02-28T09:53:10;7.20;99.90
6357;DHT22;3211;53.452;-2.264;2024-02-28T09:55:59;7.20;99.90
6357;DHT22;3211;53.452;-2.264;2024-02-28T09:58:47;7.20;99.90
6357;DHT22;3211;53.452;-2.264;2024-02-28T10:01:40;7.20;99.90
6357;DHT22;3211;53.452;-2.264;2024-02-28T10:04:29;7.20;99.90
6357;DHT22;3211;53.452;-2.264;2024-02-28T10:07:17;7.30;99.90
6357;DHT22;3211;53.452;-2.264;2024-02-28T10:10:06;7.30;99.90
6357;DHT22;3211;53.452;-2.264;2024-02-28T10:12:56;7.30;99.90
6357;DHT22;3211;53.452;-2.264;2024-02-28T10:15:44;7.30;99.90
6357;DHT22;3211;53.452;-2.264;2024-02-28T10:18:32;7.40;99.90
6357;DHT22;3211;53.452;-2.264;2024-02-28T10:21:19;7.50;99.90
6357;DHT22;3211;53.452;-2.264;2024-02-28T10:24:06;7.40;99.90
6357;DHT22;3211;53.452;-2.264;2024-02-28T10:26:54;7.40;99.90
6357;DHT22;3211;53.452;-2.264;2024-02-28T10:29:45;7.60;99.90
6357;DHT22;3211;53.452;-2.264;2024-02-28T10:32:32;7.60;99.90
6357;DHT22;3211;53.452;-2.264;2024-02-28T10:35:21;7.60;99.90
6357;DHT22;3211;53.452;-2.264;2024-02-28T10:38:11;7.60;99.90
6357;DHT22;3211;53.452;-2.264;2024-02-28T10:40:59;7.50;99.90
6357;DHT22;3211;53.452;-2.264;2024-02-28T10:43:48;7.60;99.90
6357;DHT22;3211;53.452;-2.264;2024-02-28T10:46:38;7.70;99.90
6357;DHT22;3211;53.452;-2.264;2024-02-28T10:49:26;7.70;99.90
6357;DHT22;3211;53.452;-2.264;2024-02-28T10:52:14;7.80;99.90
6357;DHT22;3211;53.452;-2.264;2024-02-28T10:55:06;7.80;99.90
6357;DHT22;3211;53.452;-2.264;2024-02-28T10:58:00;7.80;99.90
6357;DHT22;3211;53.452;-2.264;2024-02-28T11:00:49;7.80;99.90
6357;DHT22;3211;53.452;-2.264;2024-02-28T11:03:40;7.80;99.90
6357;DHT22;3211;53.452;-2.264;2024-02-28T11:06:27;7.90;99.90
6357;DHT22;3211;53.452;-2.264;2024-02-28T11:09:19;7.90;99.90
6357;DHT22;3211;53.452;-2.264;2024-02-28T11:12:24;8.00;99.90
6357;DHT22;3211;53.452;-2.264;2024-02-28T11:15:16;8.10;99.90
6357;DHT22;3211;53.452;-2.264;2024-02-28T11:18:07;8.10;99.90
6357;DHT22;3211;53.452;-2.264;2024-02-28T11:20:57;8.20;99.90
6357;DHT22;3211;53.452;-2.264;2024-02-28T11:23:46;8.20;99.90
6357;DHT22;3211;53.452;-2.264;2024-02-28T11:26:34;8.20;99.90
6357;DHT22;3211;53.452;-2.264;2024-02-28T11:29:25;8.30;99.90
6357;DHT22;3211;53.452;-2.264;2024-02-28T11:32:13;8.40;99.90
6357;DHT22;3211;53.452;-2.264;2024-02-28T11:35:01;8.40;99.90
6357;DHT22;3211;53.452;-2.264;2024-02-28T11:37:50;8.40;99.90
6357;DHT22;3211;53.452;-2.264;2024-02-28T11:40:48;8.50;99.90
6357;DHT22;3211;53.452;-2.264;2024-02-28T11:43:35;8.60;99.90
6357;DHT22;3211;53.452;-2.264;2024-02-28T11:46:23;8.60;99.90
6357;DHT22;3211;53.452;-2.264;2024-02-28T11:49:11;8.60;99.90
6357;DHT22;3211;53.452;-2.264;2024-02-28T11:51:58;8.70;99.90
6357;DHT22;3211;53.452;-2.264;2024-02-28T11:54:48;8.70;99.90
6357;DHT22;3211;53.452;-2.264;2024-02-28T11:57:37;8.70;99.90
6357;DHT22;3211;53.452;-2.264;2024-02-28T12:00:25;8.80;99.90
6357;DHT22;3211;53.452;-2.264;2024-02-28T12:03:12;8.90;99.90
6357;DHT22;3211;53.452;-2.264;2024-02-28T12:05:59;8.90;99.90
6357;DHT22;3211;53.452;-2.264;2024-02-28T12:08:46;8.90;99.90
6357;DHT22;3211;53.452;-2.264;2024-02-28T12:11:35;8.90;99.90
6357;DHT22;3211;53.452;-2.264;2024-02-28T12:14:23;9.00;99.90
6357;DHT22;3211;53.452;-2.264;2024-02-28T12:17:10;8.90;99.90
6357;DHT22;3211;53.452;-2.264;2024-02-28T12:19:59;8.90;99.90
6357;DHT22;3211;53.452;-2.264;2024-02-28T12:22:46;8.80;99.90
6357;DHT22;3211;53.452;-2.264;2024-02-28T12:25:34;8.70;99.90
6357;DHT22;3211;53.452;-2.264;2024-02-28T12:28:23;8.80;99.90
6357;DHT22;3211;53.452;-2.264;2024-02-28T12:31:11;8.80;99.90
6357;DHT22;3211;53.452;-2.264;2024-02-28T12:33:59;8.90;99.90
6357;DHT22;3211;53.452;-2.264;2024-02-28T12:36:46;8.90;99.90
6357;DHT22;3211;53.452;-2.264;2024-02-28T12:39:33;9.00;99.90
6357;DHT22;3211;53.452;-2.264;2024-02-28T12:42:21;9.00;99.90
6357;DHT22;3211;53.452;-2.264;2024-02-28T12:45:09;9.00;99.90
6357;DHT22;3211;53.452;-2.264;2024-02-28T12:47:57;9.10;99.90
6357;DHT22;3211;53.452;-2.264;2024-02-28T12:50:44;9.10;99.90
6357;DHT22;3211;53.452;-2.264;2024-02-28T12:53:32;9.10;99.90
6357;DHT22;3211;53.452;-2.264;2024-02-28T12:56:19;9.30;99.90
6357;DHT22;3211;53.452;-2.264;2024-02-28T12:59:06;9.40;99.90
6357;DHT22;3211;53.452;-2.264;2024-02-28T13:01:55;9.30;99.90
6357;DHT22;3211;53.452;-2.264;2024-02-28T13:04:42;9.30;99.90
6357;DHT22;3211;53.452;-2.264;2024-02-28T13:07:30;9.40;99.90
6357;DHT22;3211;53.452;-2.264;2024-02-28T13:10:17;9.30;99.90
6357;DHT22;3211;53.452;-2.264;2024-02-28T13:13:04;9.10;99.90
6357;DHT22;3211;53.452;-2.264;2024-02-28T13:15:52;9.20;99.90
6357;DHT22;3211;53.452;-2.264;2024-02-28T13:18:40;9.20;99.90
6357;DHT22;3211;53.452;-2.264;2024-02-28T13:21:28;9.10;99.90
6357;DHT22;3211;53.452;-2.264;2024-02-28T13:24:15;9.10;99.90
6357;DHT22;3211;53.452;-2.264;2024-02-28T13:27:03;9.10;99.90
6357;DHT22;3211;53.452;-2.264;2024-02-28T13:29:51;9.10;99.90
6357;DHT22;3211;53.452;-2.264;2024-02-28T13:32:38;9.30;99.90
6357;DHT22;3211;53.452;-2.264;2024-02-28T13:35:27;9.30;99.90
6357;DHT22;3211;53.452;-2.264;2024-02-28T13:38:14;9.30;99.90
6357;DHT22;3211;53.452;-2.264;2024-02-28T13:41:01;9.40;99.90
6357;DHT22;3211;53.452;-2.264;2024-02-28T13:43:49;9.40;99.90
6357;DHT22;3211;53.452;-2.264;2024-02-28T13:46:36;9.50;99.90
6357;DHT22;3211;53.452;-2.264;2024-02-28T13:49:27;9.60;99.90
6357;DHT22;3211;53.452;-2.264;2024-02-28T13:52:16;9.60;99.90
6357;DHT22;3211;53.452;-2.264;2024-02-28T13:55:03;9.60;99.90
6357;DHT22;3211;53.452;-2.264;2024-02-28T13:57:51;9.70;99.90
6357;DHT22;3211;53.452;-2.264;2024-02-28T14:00:38;9.70;99.90
6357;DHT22;3211;53.452;-2.264;2024-02-28T14:03:26;9.70;99.90
6357;DHT22;3211;53.452;-2.264;2024-02-28T14:06:13;9.60;99.90
6357;DHT22;3211;53.452;-2.264;2024-02-28T14:09:02;9.70;99.90
6357;DHT22;3211;53.452;-2.264;2024-02-28T14:11:50;9.60;99.90
6357;DHT22;3211;53.452;-2.264;2024-02-28T14:14:38;9.70;99.90
6357;DHT22;3211;53.452;-2.264;2024-02-28T14:17:25;9.80;99.90
6357;DHT22;3211;53.452;-2.264;2024-02-28T14:20:13;9.80;99.90
6357;DHT22;3211;53.452;-2.264;2024-02-28T14:23:00;9.80;99.90
6357;DHT22;3211;53.452;-2.264;2024-02-28T14:25:48;9.80;99.90
6357;DHT22;3211;53.452;-2.264;2024-02-28T14:28:36;9.80;99.90
6357;DHT22;3211;53.452;-2.264;2024-02-28T14:31:24;9.80;99.90
6357;DHT22;3211;53.452;-2.264;2024-02-28T14:34:12;9.80;99.90
6357;DHT22;3211;53.452;-2.264;2024-02-28T14:36:59;9.80;99.90
6357;DHT22;3211;53.452;-2.264;2024-02-28T14:39:47;9.80;99.90
6357;DHT22;3211;53.452;-2.264;2024-02-28T14:42:35;9.80;99.90
6357;DHT22;3211;53.452;-2.264;2024-02-28T14:45:23;9.80;99.90
6357;DHT22;3211;53.452;-2.264;2024-02-28T14:48:12;9.90;99.90
6357;DHT22;3211;53.452;-2.264;2024-02-28T14:50:59;9.90;99.90
6357;DHT22;3211;53.452;-2.264;2024-02-28T14:53:48;9.90;99.90
6357;DHT22;3211;53.452;-2.264;2024-02-28T14:56:35;9.90;99.90
6357;DHT22;3211;53.452;-2.264;2024-02-28T14:59:25;10.00;99.90
6357;DHT22;3211;53.452;-2.264;2024-02-28T15:02:12;10.00;99.90
6357;DHT22;3211;53.452;-2.264;2024-02-28T15:04:59;10.10;99.90
6357;DHT22;3211;53.452;-2.264;2024-02-28T15:07:47;10.20;99.90
6357;DHT22;3211;53.452;-2.264;2024-02-28T15:10:35;10.20;99.90
6357;DHT22;3211;53.452;-2.264;2024-02-28T15:13:22;10.20;99.90
6357;DHT22;3211;53.452;-2.264;2024-02-28T15:16:11;10.20;99.90
6357;DHT22;3211;53.452;-2.264;2024-02-28T15:18:59;10.30;99.90
6357;DHT22;3211;53.452;-2.264;2024-02-28T15:21:46;10.30;99.90
6357;DHT22;3211;53.452;-2.264;2024-02-28T15:24:33;10.30;99.90
6357;DHT22;3211;53.452;-2.264;2024-02-28T15:27:21;10.30;99.90
6357;DHT22;3211;53.452;-2.264;2024-02-28T15:30:08;10.30;99.90
6357;DHT22;3211;53.452;-2.264;2024-02-28T15:32:58;10.40;99.90
6357;DHT22;3211;53.452;-2.264;2024-02-28T15:35:46;10.50;99.90
6357;DHT22;3211;53.452;-2.264;2024-02-28T15:38:33;10.50;99.90
6357;DHT22;3211;53.452;-2.264;2024-02-28T15:41:21;10.50;99.90
6357;DHT22;3211;53.452;-2.264;2024-02-28T15:44:09;10.40;99.90
6357;DHT22;3211;53.452;-2.264;2024-02-28T15:46:57;10.50;99.90
6357;DHT22;3211;53.452;-2.264;2024-02-28T15:49:45;10.50;99.90
6357;DHT22;3211;53.452;-2.264;2024-02-28T15:52:32;10.50;99.90
6357;DHT22;3211;53.452;-2.264;2024-02-28T15:55:20;10.50;99.90
6357;DHT22;3211;53.452;-2.264;2024-02-28T15:58:07;10.50;99.90
6357;DHT22;3211;53.452;-2.264;2024-02-28T16:00:55;10.50;99.90
6357;DHT22;3211;53.452;-2.264;2024-02-28T16:03:42;10.50;99.90
6357;DHT22;3211;53.452;-2.264;2024-02-28T16:06:31;10.50;99.90
6357;DHT22;3211;53.452;-2.264;2024-02-28T16:09:18;10.50;99.90
6357;DHT22;3211;53.452;-2.264;2024-02-28T16:12:07;10.50;99.90
6357;DHT22;3211;53.452;-2.264;2024-02-28T16:14:55;10.50;99.90
6357;DHT22;3211;53.452;-2.264;2024-02-28T16:17:42;10.50;99.90
6357;DHT22;3211;53.452;-2.264;2024-02-28T16:20:30;10.60;99.90
6357;DHT22;3211;53.452;-2.264;2024-02-28T16:23:18;10.60;99.90
6357;DHT22;3211;53.452;-2.264;2024-02-28T16:26:05;10.60;99.90
6357;DHT22;3211;53.452;-2.264;2024-02-28T16:28:53;10.60;99.90
6357;DHT22;3211;53.452;-2.264;2024-02-28T16:31:41;10.60;99.90
6357;DHT22;3211;53.452;-2.264;2024-02-28T16:34:29;10.60;99.90
6357;DHT22;3211;53.452;-2.264;2024-02-28T16:37:16;10.50;99.90
6357;DHT22;3211;53.452;-2.264;2024-02-28T16:40:06;10.60;99.90
6357;DHT22;3211;53.452;-2.264;2024-02-28T16:42:54;10.60;99.90
6357;DHT22;3211;53.452;-2.264;2024-02-28T16:45:41;10.60;99.90
6357;DHT22;3211;53.452;-2.264;2024-02-28T16:48:28;10.50;99.90
6357;DHT22;3211;53.452;-2.264;2024-02-28T16:51:16;10.50;99.90
6357;DHT22;3211;53.452;-2.264;2024-02-28T16:54:05;10.40;99.90
6357;DHT22;3211;53.452;-2.264;2024-02-28T16:56:54;10.40;99.90
6357;DHT22;3211;53.452;-2.264;2024-02-28T16:59:42;10.40;99.90
6357;DHT22;3211;53.452;-2.264;2024-02-28T17:02:29;10.30;99.90
6357;DHT22;3211;53.452;-2.264;2024-02-28T17:05:17;10.40;99.90
6357;DHT22;3211;53.452;-2.264;2024-02-28T17:08:04;10.40;99.90
6357;DHT22;3211;53.452;-2.264;2024-02-28T17:10:52;10.40;99.90
6357;DHT22;3211;53.452;-2.264;2024-02-28T17:13:42;10.40;99.90
6357;DHT22;3211;53.452;-2.264;2024-02-28T17:16:29;10.30;99.90
6357;DHT22;3211;53.452;-2.264;2024-02-28T17:19:18;10.30;99.90
6357;DHT22;3211;53.452;-2.264;2024-02-28T17:22:05;10.30;99.90
6357;DHT22;3211;53.452;-2.264;2024-02-28T17:24:52;10.20;99.90
6357;DHT22;3211;53.452;-2.264;2024-02-28T17:27:40;10.30;99.90
6357;DHT22;3211;53.452;-2.264;2024-02-28T17:30:29;10.30;99.90
6357;DHT22;3211;53.452;-2.264;2024-02-28T17:33:16;10.30;99.90
6357;DHT22;3211;53.452;-2.264;2024-02-28T17:36:04;10.20;99.90
6357;DHT22;3211;53.452;-2.264;2024-02-28T17:38:52;10.20;99.90
6357;DHT22;3211;53.452;-2.264;2024-02-28T17:41:39;10.30;99.90
6357;DHT22;3211;53.452;-2.264;2024-02-28T17:44:26;10.30;99.90
6357;DHT22;3211;53.452;-2.264;2024-02-28T17:47:15;10.30;99.90
6357;DHT22;3211;53.452;-2.264;2024-02-28T17:50:03;10.30;99.90
6357;DHT22;3211;53.452;-2.264;2024-02-28T17:52:51;10.30;99.90
6357;DHT22;3211;53.452;-2.264;2024-02-28T17:55:38;10.30;99.90
6357;DHT22;3211;53.452;-2.264;2024-02-28T17:58:26;10.30;99.90
6357;DHT22;3211;53.452;-2.264;2024-02-28T18:01:15;10.30;99.90
6357;DHT22;3211;53.452;-2.264;2024-02-28T18:04:03;10.30;99.90
6357;DHT22;3211;53.452;-2.264;2024-02-28T18:06:51;10.30;99.90
6357;DHT22;3211;53.452;-2.264;2024-02-28T18:09:38;10.30;99.90
6357;DHT22;3211;53.452;-2.264;2024-02-28T18:12:26;10.40;99.90